createdAt,value
2023-05-22T00:03:29.412Z,71.05
2023-05-22T00:07:30.987Z,70.14
2023-05-22T00:11:34.732Z,71.42
2023-05-22T00:15:36.157Z,71.43
2023-05-22T00:19:38.185Z,72.76
2023-05-22T00:23:39.718Z,70.61
2023-05-22T00:27:41.206Z,71.51
2023-05-22T00:31:42.667Z,72.46
2023-05-22T00:35:44.256Z,73.03
2023-05-22T00:39:46.318Z,72.73
2023-05-22T00:43:48.012Z,73.22
2023-05-22T00:47:50.213Z,73.01
2023-05-22T00:51:51.780Z,72.79
2023-05-22T00:55:54.026Z,73.01
2023-05-22T00:59:56.265Z,71.80
2023-05-22T01:03:57.879Z,72.63
2023-05-22T01:07:59.400Z,73.20
2023-05-22T01:12:19.130Z,72.31
2023-05-22T01:16:32.133Z,72.19
2023-05-22T01:20:48.892Z,70.81
2023-05-22T01:25:21.077Z,71.91
2023-05-22T01:29:30.869Z,71.48
2023-05-22T01:33:41.803Z,70.94
2023-05-22T01:37:45.121Z,70.00
2023-05-22T01:41:47.209Z,70.56
2023-05-22T01:45:49.309Z,70.97
2023-05-22T01:49:51.963Z,71.02
2023-05-22T01:53:59.136Z,70.89
2023-05-22T01:58:17.531Z,71.22
2023-05-22T02:02:21.211Z,70.85
2023-05-22T02:06:24.987Z,71.18
2023-05-22T02:10:29.137Z,71.31
2023-05-22T02:14:31.560Z,71.24
2023-05-22T02:18:33.619Z,71.83
2023-05-22T02:22:35.075Z,73.51
2023-05-22T02:26:37.216Z,74.53
2023-05-22T02:30:38.938Z,75.12
2023-05-22T02:34:40.568Z,74.21
2023-05-22T02:38:42.060Z,76.74
2023-05-22T02:42:43.493Z,77.98
2023-05-22T02:46:45.697Z,76.12
2023-05-22T02:50:48.754Z,78.02
2023-05-22T02:54:50.265Z,79.98
2023-05-22T02:58:51.750Z,80.35
2023-05-22T03:02:53.364Z,83.09
2023-05-22T03:06:55.384Z,82.74
2023-05-22T03:10:57.693Z,82.37
2023-05-22T03:14:59.312Z,84.55
2023-05-22T03:19:11.007Z,85.31
2023-05-22T03:23:13.357Z,84.98
2023-05-22T03:27:17.050Z,85.20
2023-05-22T03:31:18.576Z,83.50
2023-05-22T03:35:20.078Z,85.87
2023-05-22T03:39:21.562Z,85.76
2023-05-22T03:43:23.029Z,85.42
2023-05-22T03:47:24.541Z,86.83
2023-05-22T03:51:26.106Z,85.92
2023-05-22T03:55:27.584Z,84.69
2023-05-22T03:59:29.075Z,85.33
2023-05-22T04:03:30.654Z,85.70
2023-05-22T04:07:32.579Z,85.21
2023-05-22T04:11:34.058Z,84.75
2023-05-22T04:15:36.450Z,84.98
2023-05-22T04:19:38.018Z,87.54
2023-05-22T04:23:43.168Z,87.95
2023-05-22T04:27:44.657Z,89.94
2023-05-22T04:31:46.253Z,89.07
2023-05-22T04:35:48.214Z,90.56
2023-05-22T04:39:52.873Z,91.23
2023-05-22T04:43:54.716Z,90.03
2023-05-22T04:47:57.048Z,90.10
2023-05-22T04:51:58.794Z,91.19
2023-05-22T04:56:00.827Z,91.85
2023-05-22T05:00:04.365Z,90.88
2023-05-22T05:04:06.101Z,88.70
2023-05-22T05:08:07.810Z,90.56
2023-05-22T05:12:09.342Z,91.29
2023-05-22T05:16:11.371Z,90.95
2023-05-22T05:20:14.504Z,92.00
2023-05-22T05:24:19.723Z,94.76
2023-05-22T05:28:21.297Z,93.67
2023-05-22T05:32:22.888Z,90.70
2023-05-22T05:36:28.243Z,89.79
2023-05-22T05:40:29.702Z,91.37
2023-05-22T05:44:31.291Z,93.08
2023-05-22T05:48:32.841Z,93.87
2023-05-22T05:52:34.438Z,91.67
2023-05-22T05:56:36.389Z,93.68
2023-05-22T06:00:39.132Z,93.70
2023-05-22T06:04:42.085Z,91.83
2023-05-22T06:08:44.189Z,89.95
2023-05-22T06:12:46.073Z,93.02
2023-05-22T06:16:47.756Z,92.01
2023-05-22T06:20:49.325Z,91.60
2023-05-22T06:24:51.243Z,88.05
2023-05-22T06:28:54.115Z,90.18
2023-05-22T06:32:55.723Z,89.31
2023-05-22T06:36:57.295Z,88.33
2023-05-22T06:40:58.839Z,91.47
2023-05-22T06:45:00.316Z,90.23
2023-05-22T06:49:02.084Z,89.36
2023-05-22T06:53:03.570Z,86.05
2023-05-22T06:57:06.984Z,86.80
2023-05-22T07:01:08.464Z,83.90
2023-05-22T07:05:09.994Z,85.88
2023-05-22T07:09:12.207Z,86.82
2023-05-22T07:13:13.769Z,84.73
2023-05-22T07:17:15.270Z,85.38
2023-05-22T07:21:16.858Z,88.23
2023-05-22T07:25:18.338Z,89.42
2023-05-22T07:29:21.936Z,85.21
2023-05-22T07:33:25.772Z,86.06
2023-05-22T07:37:27.271Z,80.76
2023-05-22T07:41:28.861Z,85.30
2023-05-22T07:45:30.803Z,81.51
2023-05-22T07:49:32.908Z,79.56
2023-05-22T07:53:35.472Z,82.80
2023-05-22T07:57:37.012Z,76.38
2023-05-22T08:01:39.656Z,73.35
2023-05-22T08:05:41.184Z,77.81
2023-05-22T08:09:45.973Z,76.96
2023-05-22T08:13:47.761Z,73.16
2023-05-22T08:17:49.455Z,72.28
2023-05-22T08:21:57.879Z,70.41
2023-05-22T08:25:59.392Z,68.21
2023-05-22T08:30:02.238Z,66.86
2023-05-22T08:34:04.862Z,64.71
2023-05-22T08:38:06.497Z,69.02
2023-05-22T08:42:08.272Z,66.62
2023-05-22T08:46:10.490Z,66.29
2023-05-22T08:50:12.414Z,61.35
2023-05-22T08:54:18.471Z,58.05
2023-05-22T08:58:21.837Z,57.71
2023-05-22T09:02:24.262Z,58.68
2023-05-22T09:06:26.271Z,55.84
2023-05-22T09:10:27.761Z,52.56
2023-05-22T09:14:38.297Z,54.56
2023-05-22T09:18:41.224Z,52.05
2023-05-22T09:22:42.711Z,52.53
2023-05-22T09:26:44.240Z,53.12
2023-05-22T09:30:49.565Z,50.85
2023-05-22T09:34:51.389Z,49.48
2023-05-22T09:38:54.075Z,49.89
2023-05-22T09:42:55.683Z,50.13
2023-05-22T09:46:57.352Z,51.42
2023-05-22T09:51:00.203Z,52.84
2023-05-22T09:55:09.413Z,50.59
2023-05-22T09:59:13.742Z,52.22
2023-05-22T10:03:17.306Z,49.48
2023-05-22T10:07:30.088Z,48.22
2023-05-22T10:11:33.375Z,46.95
2023-05-22T10:15:35.921Z,46.61
2023-05-22T10:19:40.442Z,46.48
2023-05-22T10:23:44.229Z,47.20
2023-05-22T10:27:46.062Z,43.78
2023-05-22T10:31:53.489Z,43.99
2023-05-22T10:36:08.630Z,42.87
2023-05-22T10:40:13.431Z,44.03
2023-05-22T10:44:14.994Z,43.56
2023-05-22T10:48:22.143Z,43.42
2023-05-22T10:52:23.642Z,42.07
2023-05-22T10:56:32.950Z,42.70
2023-05-22T11:00:38.001Z,40.11
2023-05-22T11:04:39.555Z,40.04
2023-05-22T11:08:41.124Z,39.02
2023-05-22T11:12:43.977Z,40.24
2023-05-22T11:16:45.744Z,39.58
2023-05-22T11:20:47.688Z,39.93
2023-05-22T11:24:49.213Z,40.94
2023-05-22T11:28:53.298Z,41.56
2023-05-22T11:32:54.812Z,41.43
2023-05-22T11:37:00.053Z,40.44
2023-05-22T11:41:01.554Z,39.42
2023-05-22T11:45:04.679Z,40.21
2023-05-22T11:49:06.586Z,39.22
2023-05-22T11:53:08.216Z,40.27
2023-05-22T11:57:09.895Z,40.19
2023-05-22T12:01:11.486Z,40.59
2023-05-22T12:05:13.936Z,39.64
2023-05-22T12:09:15.491Z,38.71
2023-05-22T12:13:24.982Z,37.60
2023-05-22T12:17:28.631Z,36.67
2023-05-22T12:21:31.547Z,36.09
2023-05-22T12:25:37.030Z,35.01
2023-05-22T12:29:39.629Z,34.93
2023-05-22T12:33:41.193Z,35.72
2023-05-22T12:37:51.748Z,35.39
2023-05-22T12:41:53.404Z,34.81
2023-05-22T12:45:54.946Z,33.43
2023-05-22T12:49:56.437Z,32.40
2023-05-22T12:53:58.995Z,30.83
2023-05-22T12:58:00.763Z,29.79
2023-05-22T13:02:03.287Z,29.80
2023-05-22T13:06:04.820Z,30.65
2023-05-22T13:10:07.381Z,29.19
2023-05-22T13:14:08.819Z,29.25
2023-05-22T13:18:11.752Z,28.60
2023-05-22T13:22:14.786Z,28.35
2023-05-22T13:26:16.270Z,28.87
2023-05-22T13:30:17.921Z,26.87
2023-05-22T13:34:19.572Z,27.50
2023-05-22T13:38:21.240Z,26.47
2023-05-22T13:42:22.792Z,27.81
2023-05-22T13:46:24.336Z,27.18
2023-05-22T13:50:25.847Z,26.93
2023-05-22T13:54:27.824Z,28.17
2023-05-22T13:58:29.314Z,26.92
2023-05-22T14:02:30.852Z,26.96
2023-05-22T14:06:32.530Z,27.51
2023-05-22T14:10:35.796Z,27.89
2023-05-22T14:14:37.275Z,27.17
2023-05-22T14:18:41.402Z,27.30
2023-05-22T14:22:56.031Z,27.12
2023-05-22T14:26:58.625Z,26.78
2023-05-22T14:31:00.157Z,27.97
2023-05-22T14:35:01.797Z,26.87
2023-05-22T14:39:03.290Z,26.88
2023-05-22T14:43:04.766Z,26.10
2023-05-22T14:47:06.329Z,26.04
2023-05-22T14:51:07.855Z,24.64
2023-05-22T14:55:09.688Z,25.96
2023-05-22T14:59:14.348Z,26.30
2023-05-22T15:03:16.767Z,26.42
2023-05-22T15:07:19.746Z,24.88
2023-05-22T15:11:21.941Z,25.55
2023-05-22T15:15:23.563Z,25.48
2023-05-22T15:19:26.175Z,26.08
2023-05-22T15:23:27.712Z,26.56
2023-05-22T15:27:29.238Z,27.61
2023-05-22T15:31:31.541Z,26.75
2023-05-22T15:35:33.032Z,27.48
2023-05-22T15:39:34.483Z,28.53
2023-05-22T15:43:36.095Z,27.37
2023-05-22T15:47:37.612Z,26.69
2023-05-22T15:51:39.152Z,26.74
2023-05-22T15:55:40.844Z,26.66
2023-05-22T15:59:42.578Z,26.93
2023-05-22T16:03:44.120Z,27.53
2023-05-22T16:07:45.758Z,28.88
2023-05-22T16:11:47.299Z,29.11
2023-05-22T16:15:48.837Z,26.74
2023-05-22T16:19:51.319Z,27.23
2023-05-22T16:23:52.848Z,27.54
2023-05-22T16:27:54.387Z,27.69
2023-05-22T16:31:56.825Z,28.09
2023-05-22T16:35:58.625Z,30.34
2023-05-22T16:40:00.183Z,29.45
2023-05-22T16:44:01.800Z,28.74
2023-05-22T16:48:03.399Z,27.74
2023-05-22T16:52:05.198Z,28.11
2023-05-22T16:56:06.915Z,28.62
2023-05-22T17:00:10.893Z,30.21
2023-05-22T17:04:14.828Z,30.44
2023-05-22T17:08:16.519Z,30.52
2023-05-22T17:12:18.114Z,29.21
2023-05-22T17:16:19.717Z,27.26
2023-05-22T17:20:22.972Z,28.21
2023-05-22T17:24:24.626Z,27.52
2023-05-22T17:28:28.888Z,28.84
2023-05-22T17:32:30.482Z,29.07
2023-05-22T17:36:32.653Z,28.74
2023-05-22T17:40:44.176Z,29.74
2023-05-22T17:44:46.654Z,29.34
2023-05-22T17:48:48.259Z,29.91
2023-05-22T17:52:49.743Z,31.59
2023-05-22T17:56:51.253Z,33.02
2023-05-22T18:00:53.130Z,33.13
2023-05-22T18:04:54.667Z,34.35
2023-05-22T18:08:56.157Z,34.20
2023-05-22T18:12:57.848Z,34.40
2023-05-22T18:16:59.524Z,35.82
2023-05-22T18:21:02.776Z,35.59
2023-05-22T18:25:05.781Z,36.29
2023-05-22T18:29:07.535Z,36.27
2023-05-22T18:33:09.115Z,36.51
2023-05-22T18:37:10.920Z,36.99
2023-05-22T18:41:12.658Z,37.77
2023-05-22T18:45:14.407Z,38.39
2023-05-22T18:49:16.205Z,39.32
2023-05-22T18:53:18.199Z,38.81
2023-05-22T18:57:19.678Z,39.10
2023-05-22T19:01:21.356Z,40.95
2023-05-22T19:05:23.054Z,41.52
2023-05-22T19:09:24.636Z,42.00
2023-05-22T19:13:26.591Z,43.24
2023-05-22T19:17:28.219Z,44.31
2023-05-22T19:21:29.860Z,42.48
2023-05-22T19:25:32.044Z,43.44
2023-05-22T19:29:33.638Z,43.63
2023-05-22T19:33:35.155Z,43.48
2023-05-22T19:37:36.958Z,44.31
2023-05-22T19:41:38.423Z,44.85
2023-05-22T19:45:40.313Z,44.29
2023-05-22T19:49:41.850Z,45.91
2023-05-22T19:53:44.264Z,46.42
2023-05-22T19:57:45.802Z,47.24
2023-05-22T20:01:48.170Z,48.45
2023-05-22T20:05:53.540Z,48.51
2023-05-22T20:09:55.059Z,48.12
2023-05-22T20:13:56.711Z,49.66
2023-05-22T20:17:58.278Z,48.84
2023-05-22T20:22:00.972Z,48.76
2023-05-22T20:26:02.802Z,49.19
2023-05-22T20:30:04.936Z,49.34
2023-05-22T20:34:08.041Z,49.20
2023-05-22T20:38:09.835Z,50.78
2023-05-22T20:42:12.964Z,51.37
2023-05-22T20:46:14.626Z,50.96
2023-05-22T20:50:16.217Z,51.28
2023-05-22T20:54:18.238Z,54.02
2023-05-22T20:58:19.931Z,53.64
2023-05-22T21:02:21.471Z,52.09
2023-05-22T21:06:27.011Z,54.02
2023-05-22T21:10:28.467Z,54.70
2023-05-22T21:14:30.351Z,55.15
2023-05-22T21:18:31.827Z,55.68
2023-05-22T21:22:33.263Z,55.79
2023-05-22T21:26:36.228Z,55.76
2023-05-22T21:30:37.895Z,56.09
2023-05-22T21:34:39.484Z,57.31
2023-05-22T21:38:41.134Z,56.83
2023-05-22T21:42:47.070Z,57.04
2023-05-22T21:46:48.921Z,57.67
2023-05-22T21:50:50.501Z,58.81
2023-05-22T21:54:51.995Z,58.48
2023-05-22T21:58:53.646Z,59.05
2023-05-22T22:02:57.231Z,58.17
2023-05-22T22:06:58.812Z,58.83
2023-05-22T22:11:00.408Z,58.02
2023-05-22T22:15:02.376Z,57.56
2023-05-22T22:19:04.713Z,57.69
2023-05-22T22:23:06.206Z,57.92
2023-05-22T22:27:07.799Z,57.82
2023-05-22T22:31:09.749Z,57.99
2023-05-22T22:35:11.405Z,58.74
2023-05-22T22:39:12.949Z,58.42
2023-05-22T22:43:14.449Z,59.29
2023-05-22T22:47:15.950Z,60.65
2023-05-22T22:51:17.543Z,59.69
2023-05-22T22:55:19.215Z,59.68
2023-05-22T22:59:21.040Z,60.73
2023-05-22T23:03:22.731Z,59.42
2023-05-22T23:07:24.251Z,60.52
2023-05-22T23:11:28.025Z,59.21
2023-05-22T23:15:29.856Z,59.93
2023-05-22T23:19:31.612Z,59.34
2023-05-22T23:23:33.262Z,59.88
2023-05-22T23:27:34.842Z,60.27
2023-05-22T23:31:36.657Z,61.10
2023-05-22T23:35:38.408Z,61.28
2023-05-22T23:39:39.977Z,63.26
2023-05-22T23:43:42.439Z,65.12
2023-05-22T23:47:43.900Z,64.73
2023-05-22T23:51:45.429Z,64.86
2023-05-22T23:55:46.926Z,63.88
2023-05-22T23:59:48.527Z,65.00
